sensor_id;sensor_type;location;lat;lon;timestamp;pressure;altitude;pressure_sealevel;temperature;humidity
46724;BME280;32463;48.298;11.620;2023-01-29T16:06:38;97055.81;;;-0.98;100.00
46724;BME280;32463;48.298;11.620;2023-01-29T16:09:05;97054.16;;;-0.99;100.00
46724;BME280;32463;48.298;11.620;2023-01-29T16:11:33;97064.06;;;-0.93;100.00
46724;BME280;32463;48.298;11.620;2023-01-29T16:14:01;97068.84;;;-0.87;100.00
46724;BME280;32463;48.298;11.620;2023-01-29T16:16:28;97068.09;;;-0.89;100.00
46724;BME280;32463;48.298;11.620;2023-01-29T16:18:55;97058.81;;;-0.90;100.00
46724;BME280;32463;48.298;11.620;2023-01-29T16:21:35;97069.16;;;-0.93;100.00
46724;BME280;32463;48.298;11.620;2023-01-29T16:24:10;97056.03;;;-1.03;100.00
46724;BME280;32463;48.298;11.620;2023-01-29T16:26:48;97076.38;;;-1.03;100.00
46724;BME280;32463;48.298;11.620;2023-01-29T16:29:21;97062.97;;;-1.06;100.00
46724;BME280;32463;48.298;11.620;2023-01-29T16:31:54;97067.50;;;-1.13;100.00
46724;BME280;32463;48.298;11.620;2023-01-29T16:36:52;97074.22;;;-1.12;100.00
46724;BME280;32463;48.298;11.620;2023-01-29T16:39:22;97072.38;;;-1.08;100.00
46724;BME280;32463;48.298;11.620;2023-01-29T16:45:04;97085.66;;;-1.02;100.00
46724;BME280;32463;48.298;11.620;2023-01-29T16:50:45;97091.84;;;-1.07;100.00
46724;BME280;32463;48.298;11.620;2023-01-29T16:52:57;97086.75;;;-1.07;100.00
46724;BME280;32463;48.298;11.620;2023-01-29T16:55:52;97087.16;;;-1.16;100.00
46724;BME280;32463;48.298;11.620;2023-01-29T16:58:24;97094.94;;;-1.19;100.00
46724;BME280;32463;48.298;11.620;2023-01-29T17:00:58;97095.81;;;-1.20;100.00
46724;BME280;32463;48.298;11.620;2023-01-29T17:03:27;97097.63;;;-1.22;100.00
46724;BME280;32463;48.298;11.620;2023-01-29T17:05:55;97101.72;;;-1.20;100.00
46724;BME280;32463;48.298;11.620;2023-01-29T17:08:25;97090.31;;;-1.11;100.00
46724;BME280;32463;48.298;11.620;2023-01-29T17:10:52;97095.97;;;-1.05;100.00
46724;BME280;32463;48.298;11.620;2023-01-29T17:13:27;97092.81;;;-1.10;100.00
46724;BME280;32463;48.298;11.620;2023-01-29T17:15:59;97104.06;;;-1.15;100.00
46724;BME280;32463;48.298;11.620;2023-01-29T17:18:27;97094.09;;;-1.20;100.00
46724;BME280;32463;48.298;11.620;2023-01-29T17:20:54;97100.38;;;-1.27;100.00
46724;BME280;32463;48.298;11.620;2023-01-29T17:23:21;97104.63;;;-1.27;100.00
46724;BME280;32463;48.298;11.620;2023-01-29T17:25:48;97098.72;;;-1.28;100.00
46724;BME280;32463;48.298;11.620;2023-01-29T17:28:16;97099.81;;;-1.33;100.00
46724;BME280;32463;48.298;11.620;2023-01-29T17:30:43;97104.75;;;-1.30;100.00
46724;BME280;32463;48.298;11.620;2023-01-29T17:33:15;97095.41;;;-1.30;100.00
46724;BME280;32463;48.298;11.620;2023-01-29T17:35:43;97096.25;;;-1.29;100.00
46724;BME280;32463;48.298;11.620;2023-01-29T17:38:11;97101.34;;;-1.29;100.00
46724;BME280;32463;48.298;11.620;2023-01-29T17:40:41;97102.84;;;-1.25;100.00
46724;BME280;32463;48.298;11.620;2023-01-29T17:43:09;97101.47;;;-1.32;100.00
46724;BME280;32463;48.298;11.620;2023-01-29T17:45:39;97097.19;;;-1.32;100.00
46724;BME280;32463;48.298;11.620;2023-01-29T17:48:21;97100.50;;;-1.30;100.00
46724;BME280;32463;48.298;11.620;2023-01-29T17:50:49;97101.19;;;-1.26;100.00
46724;BME280;32463;48.298;11.620;2023-01-29T17:53:18;97101.34;;;-1.29;100.00
46724;BME280;32463;48.298;11.620;2023-01-29T17:55:45;97098.03;;;-1.31;100.00
46724;BME280;32463;48.298;11.620;2023-01-29T18:00:46;97086.91;;;-1.29;100.00
46724;BME280;32463;48.298;11.620;2023-01-29T18:03:13;97096.13;;;-1.26;100.00
46724;BME280;32463;48.298;11.620;2023-01-29T18:05:41;97098.72;;;-1.28;100.00
46724;BME280;32463;48.298;11.620;2023-01-29T18:08:29;97096.13;;;-1.26;100.00
46724;BME280;32463;48.298;11.620;2023-01-29T18:10:57;97095.97;;;-1.23;100.00
46724;BME280;32463;48.298;11.620;2023-01-29T18:13:24;97092.53;;;-1.22;100.00
46724;BME280;32463;48.298;11.620;2023-01-29T18:15:50;97094.16;;;-1.21;100.00
46724;BME280;32463;48.298;11.620;2023-01-29T18:18:19;97096.13;;;-1.26;100.00
46724;BME280;32463;48.298;11.620;2023-01-29T18:20:46;97099.25;;;-1.21;100.00
46724;BME280;32463;48.298;11.620;2023-01-29T18:23:13;97096.66;;;-1.20;100.00
46724;BME280;32463;48.298;11.620;2023-01-29T18:25:40;97085.63;;;-1.20;100.00
46724;BME280;32463;48.298;11.620;2023-01-29T18:28:12;97086.34;;;-1.17;100.00
46724;BME280;32463;48.298;11.620;2023-01-29T18:30:39;97085.88;;;-1.25;100.00
46724;BME280;32463;48.298;11.620;2023-01-29T18:33:06;97091.41;;;-1.17;100.00
46724;BME280;32463;48.298;11.620;2023-01-29T18:35:32;97081.25;;;-1.17;100.00
46724;BME280;32463;48.298;11.620;2023-01-29T18:37:59;97077.75;;;-1.14;100.00
46724;BME280;32463;48.298;11.620;2023-01-29T18:40:25;97079.66;;;-1.19;100.00
46724;BME280;32463;48.298;11.620;2023-01-29T18:42:52;97077.81;;;-1.16;100.00
46724;BME280;32463;48.298;11.620;2023-01-29T18:45:18;97086.41;;;-1.18;100.00
46724;BME280;32463;48.298;11.620;2023-01-29T18:47:44;97085.63;;;-1.20;100.00
46724;BME280;32463;48.298;11.620;2023-01-29T18:50:12;97076.22;;;-1.18;100.00
46724;BME280;32463;48.298;11.620;2023-01-29T18:52:38;97087.16;;;-1.16;100.00
46724;BME280;32463;48.298;11.620;2023-01-29T18:55:05;97086.63;;;-1.23;100.00
46724;BME280;32463;48.298;11.620;2023-01-29T18:57:33;97079.34;;;-1.30;100.00
46724;BME280;32463;48.298;11.620;2023-01-29T19:00:00;97071.50;;;-1.26;100.00
46724;BME280;32463;48.298;11.620;2023-01-29T19:02:26;97073.97;;;-1.24;100.00
46724;BME280;32463;48.298;11.620;2023-01-29T19:04:53;97083.34;;;-1.25;100.00
